Time;durP1;ratioP1;P1;durP2;ratioP2;P2;SDS_P1;SDS_P2;PMS_P1;PMS_P2;Temp;Humidity;BMP_temperature;BMP_pressure;BME280_temperature;BME280_humidity;BME280_pressure;Samples;Min_cycle;Max_cycle;Signal;HPM_P1;HPM_P2
2022/07/08 00:01:48;;;;;;;10.37;2.80;;;12.80;99.90;;;;;;4875143;29;20285;-62
2022/07/08 00:04:18;;;;;;;9.27;3.30;;;12.80;99.90;;;;;;4873450;29;20198;-62
2022/07/08 00:06:46;;;;;;;8.23;3.43;;;12.70;99.90;;;;;;4872236;29;20238;-62
2022/07/08 00:09:15;;;;;;;7.33;3.50;;;12.60;99.90;;;;;;4875320;29;20195;-62
2022/07/08 00:11:44;;;;;;;13.07;3.33;;;12.60;99.90;;;;;;4875039;29;20223;-62
2022/07/08 00:14:13;;;;;;;8.70;3.23;;;12.50;99.90;;;;;;4867910;29;20195;-62
2022/07/08 00:16:43;;;;;;;9.80;3.30;;;12.50;99.90;;;;;;4871877;29;20274;-61
2022/07/08 00:19:14;;;;;;;9.70;3.10;;;12.50;99.90;;;;;;4876409;29;20198;-61
2022/07/08 00:21:49;;;;;;;15.70;3.53;;;12.40;99.90;;;;;;4875028;29;20298;-62
2022/07/08 00:24:18;;;;;;;7.27;3.30;;;12.40;99.90;;;;;;4875601;29;20198;-62
2022/07/08 00:26:46;;;;;;;9.57;3.70;;;12.30;99.90;;;;;;4877111;29;20230;-62
2022/07/08 00:29:14;;;;;;;7.90;3.60;;;12.30;99.90;;;;;;4875985;29;20199;-62
2022/07/08 00:31:43;;;;;;;6.37;3.00;;;12.20;99.90;;;;;;4874361;29;20614;-62
2022/07/08 00:34:11;;;;;;;8.77;3.20;;;12.10;99.90;;;;;;4890968;29;20291;-61
2022/07/08 00:36:40;;;;;;;11.87;3.67;;;12.10;99.90;;;;;;4875029;29;20191;-62
2022/07/08 00:39:10;;;;;;;11.07;3.57;;;12.10;99.90;;;;;;4877267;29;20238;-62
2022/07/08 00:41:39;;;;;;;7.97;3.73;;;12.00;99.90;;;;;;4870256;29;20199;-62
2022/07/08 00:44:07;;;;;;;7.53;3.70;;;12.00;99.90;;;;;;4877130;29;20199;-62
2022/07/08 00:46:35;;;;;;;12.33;3.53;;;11.90;99.90;;;;;;4873332;29;20221;-61
2022/07/08 00:49:04;;;;;;;13.57;3.90;;;11.90;99.90;;;;;;4871259;29;20305;-62
2022/07/08 00:51:39;;;;;;;10.23;3.97;;;11.80;99.90;;;;;;4874524;29;20287;-62
2022/07/08 00:54:09;;;;;;;8.23;3.50;;;11.80;99.90;;;;;;4871902;29;20309;-61
2022/07/08 00:56:38;;;;;;;13.23;3.97;;;11.80;99.90;;;;;;4874765;29;20211;-62
2022/07/08 00:59:06;;;;;;;7.00;3.33;;;11.80;99.90;;;;;;4872769;29;20674;-61
2022/07/08 01:01:36;;;;;;;12.03;4.17;;;11.80;99.90;;;;;;4871390;29;20294;-61
2022/07/08 01:04:05;;;;;;;8.47;3.97;;;11.70;99.90;;;;;;4874972;29;20239;-62
2022/07/08 01:06:34;;;;;;;7.83;3.40;;;11.70;99.90;;;;;;4874771;29;20206;-62
2022/07/08 01:09:02;;;;;;;10.27;3.67;;;11.60;99.90;;;;;;4882802;29;20222;-62
2022/07/08 01:11:32;;;;;;;9.03;3.83;;;11.60;99.90;;;;;;4874817;29;20210;-61
2022/07/08 01:14:01;;;;;;;8.63;3.60;;;11.50;99.90;;;;;;4870595;29;20219;-61
2022/07/08 01:16:30;;;;;;;11.63;4.53;;;11.50;99.90;;;;;;4865223;29;20318;-62
2022/07/08 01:18:58;;;;;;;13.33;4.00;;;11.50;99.90;;;;;;4867758;29;20207;-62
2022/07/08 01:21:27;;;;;;;11.80;3.97;;;11.50;99.90;;;;;;4872002;29;20314;-62
2022/07/08 01:23:56;;;;;;;8.53;4.17;;;11.50;99.90;;;;;;4868191;29;20684;-61
2022/07/08 01:26:25;;;;;;;8.77;4.23;;;11.50;99.90;;;;;;4872538;29;21846;-62
2022/07/08 01:28:53;;;;;;;9.43;4.00;;;11.50;99.90;;;;;;4868506;29;20238;-62
2022/07/08 01:31:22;;;;;;;11.20;3.97;;;11.50;99.90;;;;;;4872134;29;20200;-62
2022/07/08 01:33:50;;;;;;;9.93;4.13;;;11.40;99.90;;;;;;4867438;29;20214;-62
2022/07/08 01:36:18;;;;;;;8.33;4.33;;;11.40;99.90;;;;;;4866668;29;20219;-62
2022/07/08 01:38:48;;;;;;;14.03;4.50;;;11.30;99.90;;;;;;4875130;29;20226;-62
2022/07/08 01:41:16;;;;;;;9.80;4.83;;;11.30;99.90;;;;;;4871714;29;20674;-61
2022/07/08 01:43:44;;;;;;;13.30;4.50;;;11.30;99.90;;;;;;4871101;29;20203;-62
2022/07/08 01:46:13;;;;;;;14.77;4.90;;;11.30;99.90;;;;;;4884850;29;20205;-61
2022/07/08 01:48:42;;;;;;;10.13;4.47;;;11.20;99.90;;;;;;4868661;29;20223;-62
2022/07/08 01:51:10;;;;;;;13.33;5.00;;;11.20;99.90;;;;;;4871326;29;20285;-62
2022/07/08 01:53:39;;;;;;;9.30;4.97;;;11.20;99.90;;;;;;4870854;29;20603;-61
2022/07/08 01:56:08;;;;;;;9.00;5.00;;;11.10;99.90;;;;;;4871753;29;20230;-62
2022/07/08 01:58:37;;;;;;;19.03;5.80;;;11.10;99.90;;;;;;4873612;29;20539;-62
2022/07/08 02:01:05;;;;;;;11.97;5.87;;;11.10;99.90;;;;;;4872910;29;20203;-62
2022/07/08 02:03:33;;;;;;;9.17;5.10;;;11.10;99.90;;;;;;4870168;29;20951;-62
2022/07/08 02:06:02;;;;;;;13.27;4.87;;;11.10;99.90;;;;;;4869659;29;20230;-62
2022/07/08 02:08:30;;;;;;;13.00;5.43;;;11.00;99.90;;;;;;4876059;29;20294;-62
2022/07/08 02:13:46;;;;;;;12.20;5.23;;;11.10;99.90;;;;;;4867689;29;20214;-62
2022/07/08 02:16:14;;;;;;;13.80;5.60;;;11.10;99.90;;;;;;4871685;29;20309;-61
2022/07/08 02:18:43;;;;;;;12.77;5.87;;;11.00;99.90;;;;;;4869168;29;20209;-61
2022/07/08 02:21:12;;;;;;;13.50;5.37;;;11.00;99.90;;;;;;4872378;29;20262;-61
2022/07/08 02:23:40;;;;;;;11.23;5.50;;;11.00;99.90;;;;;;4868061;29;20203;-62
2022/07/08 02:26:08;;;;;;;13.00;4.90;;;11.00;99.90;;;;;;4864511;29;20237;-62
2022/07/08 02:28:36;;;;;;;10.00;4.77;;;11.00;99.90;;;;;;4867423;29;20302;-62
2022/07/08 02:31:06;;;;;;;14.17;5.07;;;11.00;99.90;;;;;;4866149;29;20670;-62
2022/07/08 02:33:34;;;;;;;10.57;4.70;;;11.00;99.90;;;;;;4870775;29;20214;-61
2022/07/08 02:36:03;;;;;;;13.30;5.27;;;10.90;99.90;;;;;;4869446;29;20226;-61
2022/07/08 02:38:31;;;;;;;16.07;4.80;;;10.90;99.90;;;;;;4864469;29;20244;-62
2022/07/08 02:41:00;;;;;;;12.90;5.07;;;10.90;99.90;;;;;;4868145;29;20222;-62
2022/07/08 02:43:28;;;;;;;9.03;4.47;;;10.90;99.90;;;;;;4873145;29;20735;-62
2022/07/08 02:45:56;;;;;;;11.77;4.73;;;10.90;99.90;;;;;;4869300;29;20205;-61
2022/07/08 02:48:26;;;;;;;7.23;4.60;;;10.80;99.90;;;;;;4868917;29;20265;-62
2022/07/08 02:50:55;;;;;;;11.17;4.70;;;10.80;99.90;;;;;;4872760;29;20209;-61
2022/07/08 02:53:23;;;;;;;11.60;4.80;;;10.80;99.90;;;;;;4878361;29;20228;-61
2022/07/08 02:55:51;;;;;;;14.77;4.47;;;10.70;99.90;;;;;;4872393;29;20227;-62
2022/07/08 02:58:20;;;;;;;7.97;4.37;;;10.70;99.90;;;;;;4873623;29;20195;-61
2022/07/08 03:00:48;;;;;;;8.70;4.30;;;10.70;99.90;;;;;;4870632;29;20207;-62
2022/07/08 03:03:16;;;;;;;11.57;4.23;;;10.60;99.90;;;;;;4872603;29;20207;-62
2022/07/08 03:05:46;;;;;;;10.87;4.60;;;10.60;99.90;;;;;;4872169;29;20294;-61
2022/07/08 03:08:14;;;;;;;7.73;4.53;;;10.50;99.90;;;;;;4874922;29;20305;-61
2022/07/08 03:10:43;;;;;;;14.83;4.93;;;10.50;99.90;;;;;;4872852;29;20207;-61
2022/07/08 03:13:11;;;;;;;11.17;4.50;;;10.50;99.90;;;;;;4875229;29;20647;-61
2022/07/08 03:15:39;;;;;;;11.33;4.47;;;10.50;99.90;;;;;;4872095;29;20202;-61
2022/07/08 03:18:07;;;;;;;11.50;4.73;;;10.40;99.90;;;;;;4873653;29;20267;-61
2022/07/08 03:20:36;;;;;;;9.90;4.30;;;10.40;99.90;;;;;;4872383;29;20214;-61
2022/07/08 03:23:06;;;;;;;10.47;4.40;;;10.30;99.90;;;;;;4873139;29;20690;-62
2022/07/08 03:25:34;;;;;;;14.80;5.10;;;10.30;99.90;;;;;;4875684;29;20210;-62
2022/07/08 03:28:03;;;;;;;10.43;4.43;;;10.30;99.90;;;;;;4873822;29;20301;-62
2022/07/08 03:30:31;;;;;;;9.73;4.67;;;10.30;99.90;;;;;;4872907;29;20282;-62
2022/07/08 03:32:59;;;;;;;12.23;5.30;;;10.30;99.90;;;;;;4874657;29;20203;-61
2022/07/08 03:35:28;;;;;;;13.77;5.10;;;10.30;99.90;;;;;;4873229;29;20210;-62
2022/07/08 03:37:56;;;;;;;11.60;5.10;;;10.30;99.90;;;;;;4877377;29;20205;-61
2022/07/08 03:43:12;;;;;;;21.03;5.97;;;10.40;99.90;;;;;;4875152;29;20195;-62
2022/07/08 03:45:40;;;;;;;14.83;4.97;;;10.40;99.90;;;;;;4872899;29;20283;-62
2022/07/08 03:48:09;;;;;;;12.93;5.30;;;10.40;99.90;;;;;;4878401;29;20233;-61
2022/07/08 03:50:37;;;;;;;9.40;5.27;;;10.40;99.90;;;;;;4876635;29;20310;-61
2022/07/08 03:53:05;;;;;;;10.27;5.10;;;10.40;99.90;;;;;;4878960;29;20199;-62
2022/07/08 03:55:35;;;;;;;10.53;5.43;;;10.40;99.90;;;;;;4867111;29;20203;-62
2022/07/08 03:58:03;;;;;;;13.57;6.00;;;10.40;99.90;;;;;;4873842;29;20578;-61
2022/07/08 04:00:32;;;;;;;12.10;5.40;;;10.40;99.90;;;;;;4869456;29;20202;-61
2022/07/08 04:03:06;;;;;;;13.87;5.90;;;10.40;99.90;;;;;;4878083;29;20292;-61
2022/07/08 04:05:34;;;;;;;13.93;6.00;;;10.40;99.90;;;;;;4873074;29;20540;-61
2022/07/08 04:08:03;;;;;;;13.37;6.23;;;10.50;99.90;;;;;;4874101;29;20222;-61
2022/07/08 04:10:31;;;;;;;11.53;5.03;;;10.50;99.90;;;;;;4876759;29;20225;-61
2022/07/08 04:13:02;;;;;;;10.20;5.37;;;10.50;99.90;;;;;;4876101;29;20707;-62
2022/07/08 04:15:30;;;;;;;12.90;4.93;;;10.50;99.90;;;;;;4877587;29;20282;-61
2022/07/08 04:17:59;;;;;;;17.27;5.63;;;10.50;99.90;;;;;;4876112;29;20283;-61
2022/07/08 04:20:28;;;;;;;7.80;5.07;;;10.50;99.90;;;;;;4869642;29;20254;-60
2022/07/08 04:22:56;;;;;;;13.13;4.97;;;10.50;99.90;;;;;;4871147;29;20270;-62
2022/07/08 04:25:24;;;;;;;15.00;5.30;;;10.50;99.90;;;;;;4877152;29;20206;-61
2022/07/08 04:27:53;;;;;;;11.73;5.60;;;10.60;99.90;;;;;;4876819;29;20218;-61
2022/07/08 04:30:22;;;;;;;10.40;5.07;;;10.60;99.90;;;;;;4871588;29;20230;-61
2022/07/08 04:32:51;;;;;;;10.90;5.20;;;10.60;99.90;;;;;;4875557;29;20214;-62
2022/07/08 04:35:19;;;;;;;14.13;5.83;;;10.60;99.90;;;;;;4876438;29;20199;-61
2022/07/08 04:37:48;;;;;;;8.43;5.07;;;10.70;99.90;;;;;;4874740;29;20199;-62
2022/07/08 04:40:16;;;;;;;9.57;5.00;;;10.70;99.90;;;;;;4874422;29;20267;-64
2022/07/08 04:42:45;;;;;;;12.07;5.10;;;10.80;99.90;;;;;;4872878;29;21838;-62
2022/07/08 04:45:13;;;;;;;7.60;4.80;;;10.90;99.90;;;;;;4872572;29;22143;-62
2022/07/08 04:47:43;;;;;;;13.33;5.30;;;11.00;99.90;;;;;;4871565;29;20600;-62
2022/07/08 04:50:12;;;;;;;9.37;4.40;;;11.10;99.90;;;;;;4869902;29;20233;-62
2022/07/08 04:52:40;;;;;;;11.77;5.30;;;11.20;99.90;;;;;;4874661;29;20249;-62
2022/07/08 04:55:27;;;;;;;12.97;5.07;;;11.40;99.90;;;;;;4866516;29;20238;-62
2022/07/08 04:57:57;;;;;;;11.63;4.80;;;11.50;99.90;;;;;;4875116;29;20275;-61
2022/07/08 05:00:26;;;;;;;10.87;4.90;;;11.70;99.90;;;;;;4874231;29;20210;-62
2022/07/08 05:02:55;;;;;;;11.20;4.70;;;11.80;99.90;;;;;;4874314;29;20199;-62
2022/07/08 05:05:24;;;;;;;14.40;5.20;;;12.00;99.90;;;;;;4870277;29;20310;-62
2022/07/08 05:07:53;;;;;;;14.00;4.90;;;12.20;99.90;;;;;;4872983;29;20203;-62
2022/07/08 05:10:22;;;;;;;12.23;5.30;;;12.30;99.90;;;;;;4873169;29;20284;-62
2022/07/08 05:12:50;;;;;;;8.70;4.43;;;12.50;99.90;;;;;;4873267;29;20214;-62
2022/07/08 05:15:19;;;;;;;8.47;4.03;;;12.60;99.90;;;;;;4870891;29;20200;-62
2022/07/08 05:17:48;;;;;;;8.30;4.30;;;12.80;99.90;;;;;;4873820;29;20235;-62
2022/07/08 05:20:18;;;;;;;14.17;4.90;;;13.00;99.90;;;;;;4873101;29;20295;-61
2022/07/08 05:22:47;;;;;;;7.60;4.33;;;13.10;99.90;;;;;;4873952;29;20334;-61
2022/07/08 05:25:15;;;;;;;12.43;4.60;;;13.30;99.90;;;;;;4873366;29;20694;-61
2022/07/08 05:27:44;;;;;;;16.83;4.43;;;13.40;99.90;;;;;;4875401;29;20222;-62
2022/07/08 05:30:13;;;;;;;11.40;4.07;;;13.60;99.90;;;;;;4874443;29;20345;-61
2022/07/08 05:32:41;;;;;;;9.30;4.03;;;13.70;99.90;;;;;;4874051;29;20703;-61
2022/07/08 05:35:10;;;;;;;10.47;4.50;;;13.90;99.90;;;;;;4870801;29;20286;-62
2022/07/08 05:37:40;;;;;;;9.23;4.43;;;14.10;99.90;;;;;;4857661;29;20255;-62
2022/07/08 05:40:10;;;;;;;11.47;3.97;;;14.30;99.90;;;;;;4870920;29;20210;-62
2022/07/08 05:42:39;;;;;;;10.00;3.93;;;14.50;99.90;;;;;;4882655;29;20210;-62
2022/07/08 05:45:09;;;;;;;10.53;3.77;;;14.70;99.90;;;;;;4872582;29;20218;-62
2022/07/08 05:47:37;;;;;;;7.90;3.60;;;14.80;99.90;;;;;;4868768;29;20291;-61
2022/07/08 05:50:07;;;;;;;11.07;3.33;;;15.00;99.90;;;;;;4873640;29;20234;-61
2022/07/08 05:52:36;;;;;;;11.10;3.77;;;15.30;99.90;;;;;;4874884;29;20201;-62
2022/07/08 05:55:06;;;;;;;11.97;4.00;;;15.50;99.90;;;;;;4872649;29;20209;-62
2022/07/08 05:57:36;;;;;;;11.30;3.93;;;15.60;99.90;;;;;;4876885;29;20217;-62
2022/07/08 06:00:06;;;;;;;17.07;3.80;;;15.80;99.90;;;;;;4866629;29;20225;-62
2022/07/08 06:02:34;;;;;;;9.80;3.47;;;16.10;99.90;;;;;;4873264;29;20226;-62
2022/07/08 06:05:02;;;;;;;8.57;3.57;;;16.20;99.90;;;;;;4869975;29;20215;-62
2022/07/08 06:07:32;;;;;;;12.03;4.00;;;16.30;99.90;;;;;;4869874;29;20213;-61
2022/07/08 06:10:01;;;;;;;8.37;3.63;;;16.50;99.90;;;;;;4872567;29;20219;-62
2022/07/08 06:12:31;;;;;;;13.00;3.50;;;16.60;99.90;;;;;;4871738;29;20194;-62
2022/07/08 06:14:59;;;;;;;7.73;3.23;;;16.80;99.90;;;;;;4869751;29;20199;-62
2022/07/08 06:17:28;;;;;;;16.63;3.77;;;16.90;99.90;;;;;;4873410;29;20321;-62
2022/07/08 06:19:56;;;;;;;14.77;3.87;;;17.10;99.90;;;;;;4858435;29;20227;-62
2022/07/08 06:22:25;;;;;;;9.60;3.50;;;17.30;99.90;;;;;;4856202;29;20270;-62
2022/07/08 06:24:55;;;;;;;9.20;3.10;;;17.50;99.90;;;;;;4873315;29;20206;-62
2022/07/08 06:27:24;;;;;;;8.87;3.07;;;17.80;99.90;;;;;;4875017;29;20228;-62
2022/07/08 06:29:53;;;;;;;14.17;3.00;;;18.10;99.90;;;;;;4871476;29;20230;-62
2022/07/08 06:32:22;;;;;;;13.50;2.83;;;18.40;99.90;;;;;;4861010;29;20541;-62
2022/07/08 06:34:51;;;;;;;6.10;2.73;;;18.80;99.90;;;;;;4870092;29;20694;-62
2022/07/08 06:37:20;;;;;;;10.53;2.80;;;19.00;99.90;;;;;;4873313;29;20206;-62
2022/07/08 06:39:48;;;;;;;9.90;2.80;;;19.20;99.90;;;;;;4875675;29;20686;-62
2022/07/08 06:42:19;;;;;;;5.00;2.80;;;19.10;99.90;;;;;;4872764;29;20206;-62
2022/07/08 06:44:48;;;;;;;6.67;3.13;;;19.10;99.90;;;;;;4872628;29;20217;-62
2022/07/08 06:47:17;;;;;;;10.83;2.87;;;19.10;99.90;;;;;;4870019;29;20233;-62
2022/07/08 06:49:50;;;;;;;9.30;2.60;;;19.20;99.90;;;;;;4876152;29;20224;-63
2022/07/08 06:52:19;;;;;;;9.37;2.80;;;19.40;99.90;;;;;;4877465;29;20629;-62
2022/07/08 06:54:47;;;;;;;10.33;2.57;;;19.50;99.90;;;;;;4873213;29;20223;-62
2022/07/08 06:57:16;;;;;;;11.63;3.43;;;19.50;99.90;;;;;;4875188;29;20281;-62
2022/07/08 06:59:44;;;;;;;11.20;3.00;;;19.50;99.90;;;;;;4867985;29;20229;-63
2022/07/08 07:02:34;;;;;;;11.30;2.90;;;19.60;99.90;;;;;;4874253;29;20227;-62
2022/07/08 07:05:03;;;;;;;10.03;3.10;;;19.80;99.90;;;;;;4874758;29;20217;-63
2022/07/08 07:07:31;;;;;;;13.83;3.13;;;20.20;99.90;;;;;;4875870;29;20215;-62
2022/07/08 07:10:00;;;;;;;8.57;3.20;;;20.60;99.90;;;;;;4879482;29;20211;-63
2022/07/08 07:12:28;;;;;;;9.13;3.13;;;20.80;99.90;;;;;;4880414;29;20291;-62
2022/07/08 07:14:56;;;;;;;10.65;2.97;;;20.60;99.90;;;;;;4876285;29;20228;-63
2022/07/08 07:17:25;;;;;;;12.02;2.47;;;20.60;99.90;;;;;;4876127;29;20233;-62
2022/07/08 07:19:55;;;;;;;8.00;2.75;;;20.90;99.90;;;;;;4876777;29;20205;-63
2022/07/08 07:22:28;;;;;;;9.85;2.53;;;21.30;99.90;;;;;;4875201;29;20244;-63
2022/07/08 07:24:57;;;;;;;15.07;2.53;;;21.90;99.90;;;;;;4867911;29;20207;-63
2022/07/08 07:27:25;;;;;;;9.82;2.33;;;22.50;99.90;;;;;;4873554;29;20769;-63
2022/07/08 07:29:54;;;;;;;9.52;2.47;;;22.80;99.90;;;;;;4871558;29;20206;-63
2022/07/08 07:32:22;;;;;;;6.13;2.20;;;23.40;99.90;;;;;;4870959;29;20859;-63
2022/07/08 07:34:51;;;;;;;6.82;2.30;;;23.70;99.90;;;;;;4870513;29;20831;-63
2022/07/08 07:37:21;;;;;;;6.20;2.38;;;24.10;99.90;;;;;;4875006;29;20587;-63
2022/07/08 07:39:49;;;;;;;9.05;2.50;;;24.40;99.90;;;;;;4870886;29;20335;-63
2022/07/08 07:42:18;;;;;;;10.75;2.55;;;24.10;99.90;;;;;;4872329;29;20206;-62
2022/07/08 07:44:46;;;;;;;9.15;2.70;;;23.80;99.90;;;;;;4875012;29;20341;-63
2022/07/08 07:47:15;;;;;;;10.93;2.45;;;24.00;99.90;;;;;;4888094;29;20632;-63
2022/07/08 07:49:43;;;;;;;16.15;3.78;;;24.00;99.90;;;;;;4876635;29;20206;-63
2022/07/08 07:52:11;;;;;;;8.18;2.90;;;24.50;99.90;;;;;;4874655;29;20221;-62
2022/07/08 07:54:41;;;;;;;4.95;2.15;;;24.50;99.90;;;;;;4875485;29;20199;-62
2022/07/08 07:57:09;;;;;;;8.60;2.70;;;24.60;99.90;;;;;;4875482;29;20213;-62
2022/07/08 07:59:37;;;;;;;7.15;2.03;;;24.60;99.90;;;;;;4872395;29;20199;-63
2022/07/08 08:02:07;;;;;;;13.02;3.33;;;24.70;99.90;;;;;;4870103;29;20195;-63
2022/07/08 08:04:35;;;;;;;9.65;2.90;;;24.90;99.90;;;;;;4876838;29;20238;-63
2022/07/08 08:07:04;;;;;;;10.65;2.92;;;25.00;99.90;;;;;;4888197;29;20206;-62
2022/07/08 08:09:33;;;;;;;7.93;2.50;;;25.10;99.90;;;;;;4874759;29;20208;-63
2022/07/08 08:12:03;;;;;;;6.63;2.53;;;25.30;99.90;;;;;;4871997;29;20211;-62
2022/07/08 08:14:31;;;;;;;7.65;2.53;;;25.80;99.90;;;;;;4872263;29;20211;-63
2022/07/08 08:17:00;;;;;;;7.03;2.47;;;26.40;99.90;;;;;;4867733;29;20228;-63
2022/07/08 08:19:28;;;;;;;6.65;2.25;;;27.10;99.90;;;;;;4873633;29;20199;-62
2022/07/08 08:21:57;;;;;;;6.82;2.78;;;27.60;99.90;;;;;;4870216;29;20319;-62
2022/07/08 08:24:25;;;;;;;8.13;2.85;;;28.10;99.90;;;;;;4873181;29;20828;-63
2022/07/08 08:26:53;;;;;;;8.63;2.30;;;27.30;99.90;;;;;;4875597;29;20269;-63
2022/07/08 08:29:23;;;;;;;5.68;2.28;;;27.20;99.90;;;;;;4872322;29;20575;-63
2022/07/08 08:31:54;;;;;;;10.30;2.67;;;28.10;99.90;;;;;;4872115;29;20219;-62
2022/07/08 08:34:23;;;;;;;7.65;2.65;;;28.60;99.90;;;;;;4876494;29;20209;-63
2022/07/08 08:36:52;;;;;;;7.28;2.53;;;28.50;99.90;;;;;;4876144;29;20203;-63
2022/07/08 08:39:21;;;;;;;11.80;3.20;;;28.60;99.90;;;;;;4873042;29;20216;-63
2022/07/08 08:41:49;;;;;;;7.50;2.90;;;28.90;99.90;;;;;;4869932;29;20213;-63
2022/07/08 08:44:18;;;;;;;6.80;2.75;;;28.70;99.90;;;;;;4873637;29;20207;-63
2022/07/08 08:46:49;;;;;;;12.63;2.95;;;29.20;99.90;;;;;;4867484;29;20206;-63
2022/07/08 08:49:19;;;;;;;7.15;2.55;;;28.80;99.90;;;;;;4868059;29;20207;-63
2022/07/08 08:51:50;;;;;;;8.80;2.75;;;29.40;99.90;;;;;;4863494;29;20219;-63
2022/07/08 08:54:19;;;;;;;8.35;2.53;;;29.70;99.90;;;;;;4871029;29;20210;-63
2022/07/08 08:56:48;;;;;;;7.15;2.90;;;29.90;99.90;;;;;;4870100;29;20711;-63
2022/07/08 08:59:16;;;;;;;8.20;2.55;;;30.00;99.90;;;;;;4871658;29;20199;-63
2022/07/08 09:01:47;;;;;;;7.10;2.05;;;29.80;99.90;;;;;;4862148;29;20223;-63
2022/07/08 09:04:15;;;;;;;9.00;2.63;;;29.80;99.90;;;;;;4863098;29;20315;-63
2022/07/08 09:06:44;;;;;;;9.63;2.42;;;30.00;99.90;;;;;;4871001;29;20203;-63
2022/07/08 09:09:12;;;;;;;8.80;2.42;;;30.50;99.90;;;;;;4870399;29;20556;-63
2022/07/08 09:11:44;;;;;;;6.68;2.22;;;30.50;99.90;;;;;;4870609;29;20217;-63
2022/07/08 09:14:15;;;;;;;10.00;2.40;;;30.50;99.90;;;;;;4873973;29;20213;-63
2022/07/08 09:17:09;;;;;;;6.90;2.22;;;31.10;99.30;;;;;;4872229;29;20337;-63
2022/07/08 09:19:37;;;;;;;7.35;2.17;;;31.00;99.50;;;;;;4877941;29;20234;-63
2022/07/08 09:22:07;;;;;;;5.50;2.10;;;31.00;99.50;;;;;;4866388;29;20259;-63
2022/07/08 09:24:38;;;;;;;12.27;2.80;;;31.10;99.60;;;;;;4873172;29;20569;-63
2022/07/08 09:27:08;;;;;;;7.50;2.47;;;31.20;98.10;;;;;;4866791;29;20598;-63
2022/07/08 09:29:39;;;;;;;5.53;2.08;;;31.10;98.50;;;;;;4875122;29;20230;-63
2022/07/08 09:32:13;;;;;;;6.55;2.30;;;30.90;99.30;;;;;;4874392;29;20231;-63
2022/07/08 09:34:42;;;;;;;4.03;2.00;;;31.10;99.20;;;;;;4870450;29;20294;-63
2022/07/08 09:37:12;;;;;;;3.20;2.00;;;31.40;98.60;;;;;;4867020;29;20328;-63
2022/07/08 09:39:40;;;;;;;5.00;2.20;;;31.30;97.90;;;;;;4870828;29;20243;-63
2022/07/08 09:42:09;;;;;;;4.90;2.17;;;31.30;99.50;;;;;;4869537;29;20222;-63
2022/07/08 09:44:38;;;;;;;7.13;2.65;;;31.20;98.70;;;;;;4870852;29;20215;-63
2022/07/08 09:47:13;;;;;;;5.15;2.42;;;31.40;97.70;;;;;;4873562;29;20210;-63
2022/07/08 09:49:43;;;;;;;6.53;2.15;;;31.10;97.00;;;;;;4871941;29;20230;-63
2022/07/08 09:52:19;;;;;;;7.65;2.00;;;31.10;98.60;;;;;;4873813;29;20266;-63
2022/07/08 09:55:00;;;;;;;6.35;2.10;;;31.20;97.50;;;;;;4881858;29;20211;-63
2022/07/08 09:57:29;;;;;;;5.35;2.10;;;31.00;98.10;;;;;;4875829;29;20717;-63
2022/07/08 09:59:58;;;;;;;4.90;2.13;;;31.30;97.80;;;;;;4868419;29;20217;-63
2022/07/08 10:02:29;;;;;;;3.38;1.77;;;31.50;98.30;;;;;;4873346;29;20287;-63
2022/07/08 10:04:59;;;;;;;7.03;2.00;;;31.70;97.30;;;;;;4873901;29;20597;-63
2022/07/08 10:07:27;;;;;;;5.32;1.95;;;31.70;98.00;;;;;;4868550;29;20207;-63
2022/07/08 10:09:56;;;;;;;5.07;2.13;;;30.90;97.80;;;;;;4872443;29;20270;-63
2022/07/08 10:12:25;;;;;;;4.45;2.20;;;31.10;97.80;;;;;;4872478;29;20227;-63
2022/07/08 10:14:56;;;;;;;9.25;2.20;;;30.50;96.80;;;;;;4870469;29;20203;-62
2022/07/08 10:17:28;;;;;;;5.45;2.17;;;30.40;98.70;;;;;;4873093;29;20314;-63
2022/07/08 10:19:59;;;;;;;5.70;2.13;;;30.70;97.70;;;;;;4869970;29;20203;-63
2022/07/08 10:22:29;;;;;;;6.10;2.20;;;30.80;98.40;;;;;;4866987;29;20243;-63
2022/07/08 10:25:02;;;;;;;3.72;2.00;;;30.70;97.40;;;;;;4870560;29;20238;-63
2022/07/08 10:27:30;;;;;;;4.28;2.13;;;30.40;98.00;;;;;;4869121;29;20192;-63
2022/07/08 10:30:14;;;;;;;3.60;1.67;;;30.80;97.10;;;;;;4871988;29;20202;-63
2022/07/08 10:32:55;;;;;;;4.25;1.85;;;31.10;97.10;;;;;;4883591;29;20543;-62
2022/07/08 10:35:23;;;;;;;6.15;2.30;;;31.00;97.80;;;;;;4872829;29;20235;-63
2022/07/08 10:37:57;;;;;;;6.80;2.13;;;31.10;97.10;;;;;;4871908;29;20206;-62
2022/07/08 10:40:49;;;;;;;4.13;2.03;;;31.20;97.40;;;;;;4881108;29;20210;-63
2022/07/08 10:43:26;;;;;;;7.20;2.13;;;31.50;97.50;;;;;;4867130;29;20211;-62
2022/07/08 10:46:03;;;;;;;6.57;1.90;;;31.10;96.70;;;;;;4868674;29;20298;-62
2022/07/08 10:48:47;;;;;;;7.93;2.38;;;31.10;97.90;;;;;;4868953;29;20213;-62
2022/07/08 10:51:56;;;;;;;6.28;2.10;;;30.90;97.20;;;;;;4867532;29;20318;-63
2022/07/08 10:54:31;;;;;;;4.55;2.00;;;30.50;96.50;;;;;;4871369;29;20206;-62
2022/07/08 10:57:02;;;;;;;6.15;1.90;;;30.20;97.00;;;;;;4873956;29;20206;-62
2022/07/08 10:59:32;;;;;;;4.38;1.95;;;30.50;99.60;;;;;;4867749;29;20213;-62
2022/07/08 11:02:03;;;;;;;4.60;2.00;;;30.70;96.40;;;;;;4872234;29;20256;-62
2022/07/08 11:04:51;;;;;;;4.80;2.25;;;30.50;96.40;;;;;;4875934;29;20214;-62
2022/07/08 11:07:25;;;;;;;5.93;2.00;;;30.50;98.40;;;;;;4868072;29;20217;-62
2022/07/08 11:09:56;;;;;;;7.78;2.35;;;30.80;97.20;;;;;;4871953;29;20273;-63
2022/07/08 11:12:26;;;;;;;6.00;2.35;;;30.80;97.00;;;;;;4870095;29;20243;-62
2022/07/08 11:14:55;;;;;;;7.22;2.13;;;30.50;98.60;;;;;;4872645;29;20638;-62
2022/07/08 11:17:25;;;;;;;4.03;1.92;;;30.50;96.30;;;;;;4866465;29;20218;-62
2022/07/08 11:19:57;;;;;;;3.33;2.10;;;30.20;97.20;;;;;;4870839;29;20204;-62
2022/07/08 11:22:27;;;;;;;5.15;2.00;;;30.50;98.60;;;;;;4863283;29;20237;-62
2022/07/08 11:24:56;;;;;;;5.22;2.45;;;30.50;98.70;;;;;;4865420;29;20203;-62
2022/07/08 11:27:26;;;;;;;5.80;2.33;;;30.40;97.70;;;;;;4866459;29;20855;-62
2022/07/08 11:29:56;;;;;;;8.48;2.10;;;30.10;98.70;;;;;;4863842;29;20705;-62
2022/07/08 11:32:26;;;;;;;5.95;2.30;;;30.10;98.20;;;;;;4862904;29;20287;-62
2022/07/08 11:34:56;;;;;;;4.07;2.10;;;30.20;98.50;;;;;;4869499;29;20322;-62
2022/07/08 11:37:25;;;;;;;6.43;2.30;;;30.40;98.50;;;;;;4872574;29;20199;-62
2022/07/08 11:39:53;;;;;;;3.90;2.17;;;29.90;98.70;;;;;;4871288;29;20745;-62
2022/07/08 11:42:21;;;;;;;7.35;2.30;;;29.60;98.10;;;;;;4870852;29;20222;-62
2022/07/08 11:44:53;;;;;;;5.03;2.47;;;29.60;98.40;;;;;;4869532;29;20227;-62
2022/07/08 11:47:23;;;;;;;6.28;2.40;;;29.50;98.80;;;;;;4869268;29;20218;-62
2022/07/08 11:49:52;;;;;;;2.13;1.98;;;29.70;98.90;;;;;;4869036;29;20216;-62
2022/07/08 11:52:21;;;;;;;4.07;2.28;;;29.50;99.30;;;;;;4868414;29;20309;-62
2022/07/08 11:54:50;;;;;;;8.60;2.10;;;29.40;99.90;;;;;;4869309;29;20244;-62
2022/07/08 11:57:20;;;;;;;4.20;2.13;;;29.40;99.90;;;;;;4875083;29;20209;-62
2022/07/08 11:59:50;;;;;;;6.75;2.60;;;29.30;99.90;;;;;;4871718;29;20213;-62
2022/07/08 12:02:20;;;;;;;7.38;2.40;;;29.20;99.70;;;;;;4872401;29;20234;-62
2022/07/08 12:04:49;;;;;;;4.10;2.35;;;29.10;98.80;;;;;;4874394;29;20241;-62
2022/07/08 12:07:24;;;;;;;5.40;2.22;;;28.80;99.90;;;;;;4873396;29;20235;-62
2022/07/08 12:10:09;;;;;;;6.45;2.90;;;28.70;99.60;;;;;;4868984;29;20207;-62
2022/07/08 12:12:38;;;;;;;4.53;2.85;;;28.60;99.90;;;;;;4870259;29;20236;-61
2022/07/08 12:15:15;;;;;;;7.18;2.88;;;28.50;99.90;;;;;;4873221;29;20317;-59
2022/07/08 12:17:56;;;;;;;4.82;2.72;;;28.40;99.90;;;;;;4870947;29;20237;-61
2022/07/08 12:20:32;;;;;;;6.28;2.75;;;28.20;99.90;;;;;;4867959;29;20205;-62
2022/07/08 12:23:02;;;;;;;7.63;3.00;;;28.00;99.90;;;;;;4870822;29;20219;-61
2022/07/08 12:25:47;;;;;;;5.60;2.70;;;27.80;99.90;;;;;;4875164;29;20199;-61
2022/07/08 12:28:22;;;;;;;5.77;2.10;;;27.60;99.90;;;;;;4866611;29;20213;-61
2022/07/08 12:30:50;;;;;;;7.60;2.80;;;27.60;99.90;;;;;;4867425;29;20317;-62
2022/07/08 12:33:26;;;;;;;5.80;2.73;;;27.70;99.90;;;;;;4869667;29;20716;-62
2022/07/08 12:35:55;;;;;;;7.17;2.60;;;27.60;99.90;;;;;;4874982;29;20231;-62
2022/07/08 12:38:31;;;;;;;4.40;2.57;;;27.50;99.90;;;;;;4871660;29;20290;-61
2022/07/08 12:40:59;;;;;;;11.57;3.10;;;27.60;99.90;;;;;;4874353;29;20404;-61
2022/07/08 12:43:32;;;;;;;6.73;2.80;;;27.30;99.90;;;;;;4870817;29;20222;-61
2022/07/08 12:46:00;;;;;;;6.43;2.73;;;27.40;99.90;;;;;;4873107;29;20299;-61
2022/07/08 12:48:29;;;;;;;8.80;2.50;;;27.40;99.90;;;;;;4872298;29;20282;-61
2022/07/08 12:51:01;;;;;;;5.87;2.83;;;27.30;99.90;;;;;;4872364;29;20215;-62
2022/07/08 12:53:31;;;;;;;8.60;2.83;;;27.60;99.90;;;;;;4875141;29;20282;-61
2022/07/08 12:56:00;;;;;;;6.93;2.37;;;27.80;99.90;;;;;;4871670;29;20258;-61
2022/07/08 12:58:29;;;;;;;5.10;2.83;;;27.80;99.90;;;;;;4871065;29;20290;-61
2022/07/08 13:00:58;;;;;;;4.67;2.67;;;27.80;99.90;;;;;;4870373;29;20286;-61
2022/07/08 13:03:26;;;;;;;5.10;2.27;;;28.00;99.90;;;;;;4872507;29;20209;-61